Nationale Nord-Est Rombas (57) - F

Date : 07/04/2013
Distance : 5,500 km

Place Nom Licence Catégorie Club Temps min/km CN à J-60 Points Différence Nouveau CN
1 HABERKORN Chloé 10396 D18 2105BO 0:45:30 8'16 5652 5795 +143 5769
2 MORLON Marie 2100 D45 5702LO 0:48:15 8'46 5866 5465 -401 5898
3 LEMERCIER Mathieu 2475 H21 5407LO 0:48:35 8'50 5726 5428 -298 5678
4 GIRARD Lucille 19689 D18 3705CE 0:49:10 8'56 5077 5363 +286 5445
5 CLEMENT-AGONI Benjamin 11391 H21 2108BO 0:50:36 9'12 5390 5211 -179 5435
6 PALCAU Marie-Violaine 2723 D45 2109BO 0:50:41 9'12 5672 5203 -469 5642
7 BORNARD Julie 9402 D18 7305RA 0:51:00 9'16 4688 5170 +482 4859
8 DE LONGUEVILLE Béatrice 24272 D40 5907NO 0:52:43 9'35 5704 5002 -702 5736
9 PETER-JAN Lucile 19276 D18 3705CE 0:54:21 9'52 4614 4852 +238 4856
10 BODY Mathilde 10184 D18 7305RA 0:54:52 9'58 5190 4806 -384 5242
11 GIRE Camille 886 D45 7707IF 0:55:01 10'00 4439 4793 +354 4535
12 ZIMMERMANN David 11820 H35 5407LO 0:55:07 10'01 4226 4784 +558 4540
13 LEPERQUE Ophelie 20200 D18 6208NO 0:55:11 10'02 4562 4778 +216 4764
14 ERBLAND Christine 23153 D40 9105IF 0:56:58 10'21 4399 4629 +230 4708
15 HAURY Evelyne 13692 D45 6806AL 0:57:13 10'24 4381 4609 +228 4397
16 DENIER Anne-Françoise 23851 D40 7109BO 0:57:14 10'24 4194 4607 +413 4334
17 HABERKORN Valérie 2717 D40 2105BO 0:57:54 10'31 5397 4554 -843 5375
18 OLIVIER Sandra 2179 D45 7716IF 0:57:57 10'32 5583 4550 -1033 5504
19 SOUAN Cécile 26423 D18 7707IF 0:58:47 10'41 3240 4486 +1246 3881
20 PEREGO Arvid 27998 H21 5402LO 0:59:17 10'46 4448 4292
21 MAKOVICKA Veronique 2378 D45 6804AL 0:59:22 10'47 4353 4442 +89 4525
22 DAMIE Nicolas 8951 H21 5907NO 0:59:58 10'54 4579 4397 -182 4638
23 BACHER Amelie 10072 D18 2517FC 1:00:01 10'54 4083 4394 +311 4633
24 ROUX Catherine 13270 D40 6205NO 1:01:35 11'11 4253 4282 +29 4372
25 LUTHRINGER Coline 10091 D18 8809LO 1:02:29 11'21 4486 4220 -266 4655
26 GUENIN Nathalie 16950 D40 5116CA 1:03:52 11'36 4104 4129 +25 4172
27 RIVOLLIER Isaline 22451 D18 4201RA 1:04:05 11'39 4148 4115 -33 4242
28 VERDIN Alix 15276 D18 7109BO 1:06:14 12'02 3569 3981 +412 3714
29 VILLAR Isabelle 14216 D45 6701AL 1:07:39 12'18 4589 3898 -691 4543
30 HUCHON Patricia 25179 D45 2109BO 1:09:23 12'36 2454 3801 +1347 3324
31 RAGAZZI Isabelle 23242 D45 5407LO 1:09:25 12'37 3810 3799 -11 3969
32 BONORA Marine 11542 D18 6906RA 1:09:43 12'40 3659 3782 +123 3707
33 DUQUENNE Audrey 23885 D18 5907NO 1:10:49 12'52 4450 3724 -726 4593
34 CREUSAT Fanny 25989 D40 8809LO 1:12:17 13'08 3701 3648 -53 3914
35 MORLON Louise 7788 D18 5702LO 1:13:08 13'17 4025 3606 -419 4029
36 FLORENT Roxane 26927 D18 5907NO 1:13:33 13'22 4015 3585 -430 4045
37 AMET Marion 14575 D18 8809LO 1:13:39 13'23 4667 3580 -1087 4667
38 POURRE Valerie 738 D45 2508FC 1:14:05 13'28 4177 3559 -618 4193
39 COURTOIS Agnès 23123 D45 8807LO 1:17:06 14'01 3296 3420 +124 3539
40 BEGUINOT Claire 13961 D18 5702LO 1:17:29 14'05 3416 3403 -13 3373
41 JEANNEROD Xavier 13837 H35 6205NO 1:17:36 14'06 3951 3398 -553 3755
42 RAUTURIER Nathalie 3200 D45 7807IF 1:18:20 14'14 3803 3366 -437 3735
43 GENNARO Beatrice 20862 D40 3811RA 1:19:58 14'32 3213 3298 +85 3339
44 JUNCKER Guillaume 23423 H21 6804AL 1:20:36 14'39 4283 3272 -1011 4108
45 BASSET Laurence 23575 D40 6911RA 1:20:48 14'41 3676 3264 -412 3676
46 POURRE Nadine 12101 D45 6803AL 1:21:19 14'47 3567 3243 -324 3592
47 FENEUIL Coralie 15586 D18 5101CA 1:21:40 14'50 3399 3229 -170 3389
48 LOTERIE Murielle 7044 D45 5907NO 1:21:42 14'51 3684 3228 -456 3723
49 MAREST Nathalie 23249 D45 2104BO 1:23:51 15'14 2814 3145 +331 3053
50 BESTEL Florence 17309 D40 9105IF 1:24:22 15'20 4038 3126 -912 4008
51 MEYER Catherine 20483 D45 6806AL 1:28:51 16'09 2847 2968 +121 3015
52 HERVE-JOUSSE Odile 13784 D45 9109IF 1:28:57 16'10 3246 2965 -281 3350
53 CLOUARD Florence 8549 D45 7807IF 1:32:28 16'48 3852 2852 -1000 3747
54 TEGNY Laurine 23659 D18 6205NO 1:33:51 17'03 2682 2810 +128 2751
55 DASILVA Irene 878 D45 7707IF 1:35:00 17'16 3395 2776 -619 3395
56 GILLET Annabelle 19601 D45 5116CA 1:38:51 17'58 3718 2668 -1050 3704
57 RAVENEL Veronique 10902 D45 6804AL 1:41:51 18'31 3120 2589 -531 3090
58 DALLA-COSTA Thomas 9079 H21 5702LO 1:44:50 19'03 2515 2414
59 SERRE Francine 3429 D45 5907NO 2:49:46 30'52 2374 1553 -821 2374
BASSET Fiona 23384 D18 6911RA pm None 4531 0 4623